sensor_id;sensor_type;location;lat;lon;timestamp;P1;durP1;ratioP1;P2;durP2;ratioP2
28007;SDS011;15333;50.010;20.020;2023-07-29T00:00:31;3.83;;;3.40;;
28007;SDS011;15333;50.010;20.020;2023-07-29T00:03:53;4.28;;;3.47;;
28007;SDS011;15333;50.010;20.020;2023-07-29T00:06:53;4.60;;;3.55;;
28007;SDS011;15333;50.010;20.020;2023-07-29T00:09:54;4.93;;;3.58;;
28007;SDS011;15333;50.010;20.020;2023-07-29T00:12:55;8.60;;;4.25;;
28007;SDS011;15333;50.010;20.020;2023-07-29T00:15:56;7.35;;;3.80;;
28007;SDS011;15333;50.010;20.020;2023-07-29T00:18:57;5.63;;;3.97;;
28007;SDS011;15333;50.010;20.020;2023-07-29T00:21:58;4.35;;;3.72;;
28007;SDS011;15333;50.010;20.020;2023-07-29T00:24:59;7.35;;;3.90;;
28007;SDS011;15333;50.010;20.020;2023-07-29T00:28:00;5.15;;;3.67;;
28007;SDS011;15333;50.010;20.020;2023-07-29T00:31:01;4.88;;;3.67;;
28007;SDS011;15333;50.010;20.020;2023-07-29T00:34:03;5.78;;;4.50;;
28007;SDS011;15333;50.010;20.020;2023-07-29T00:37:03;5.63;;;3.92;;
28007;SDS011;15333;50.010;20.020;2023-07-29T00:40:12;6.03;;;4.30;;
28007;SDS011;15333;50.010;20.020;2023-07-29T00:43:17;5.07;;;3.88;;
28007;SDS011;15333;50.010;20.020;2023-07-29T00:46:18;7.32;;;4.30;;
28007;SDS011;15333;50.010;20.020;2023-07-29T00:49:19;8.75;;;4.20;;
28007;SDS011;15333;50.010;20.020;2023-07-29T00:52:21;4.55;;;3.80;;
28007;SDS011;15333;50.010;20.020;2023-07-29T00:55:22;6.60;;;3.80;;
28007;SDS011;15333;50.010;20.020;2023-07-29T00:58:24;7.78;;;4.07;;
28007;SDS011;15333;50.010;20.020;2023-07-29T01:01:25;7.55;;;4.10;;
28007;SDS011;15333;50.010;20.020;2023-07-29T01:04:27;4.93;;;4.18;;
28007;SDS011;15333;50.010;20.020;2023-07-29T01:10:58;5.57;;;4.20;;
28007;SDS011;15333;50.010;20.020;2023-07-29T01:17:52;6.32;;;4.47;;
28007;SDS011;15333;50.010;20.020;2023-07-29T01:20:59;7.28;;;4.20;;
28007;SDS011;15333;50.010;20.020;2023-07-29T01:24:08;8.18;;;4.53;;
28007;SDS011;15333;50.010;20.020;2023-07-29T01:27:09;5.85;;;4.85;;
28007;SDS011;15333;50.010;20.020;2023-07-29T01:30:10;5.75;;;4.75;;
28007;SDS011;15333;50.010;20.020;2023-07-29T01:33:16;7.90;;;4.80;;
28007;SDS011;15333;50.010;20.020;2023-07-29T01:36:21;6.88;;;5.40;;
28007;SDS011;15333;50.010;20.020;2023-07-29T01:39:25;8.70;;;5.47;;
28007;SDS011;15333;50.010;20.020;2023-07-29T01:42:31;9.57;;;5.50;;
28007;SDS011;15333;50.010;20.020;2023-07-29T01:45:31;10.65;;;6.03;;
28007;SDS011;15333;50.010;20.020;2023-07-29T01:48:36;9.32;;;6.10;;
28007;SDS011;15333;50.010;20.020;2023-07-29T01:51:36;9.32;;;5.90;;
28007;SDS011;15333;50.010;20.020;2023-07-29T01:54:37;8.30;;;6.75;;
28007;SDS011;15333;50.010;20.020;2023-07-29T01:57:38;10.13;;;5.88;;
28007;SDS011;15333;50.010;20.020;2023-07-29T02:00:39;7.78;;;5.47;;
28007;SDS011;15333;50.010;20.020;2023-07-29T02:03:40;6.40;;;5.38;;
28007;SDS011;15333;50.010;20.020;2023-07-29T02:06:41;8.60;;;5.90;;
28007;SDS011;15333;50.010;20.020;2023-07-29T02:09:42;8.15;;;5.38;;
28007;SDS011;15333;50.010;20.020;2023-07-29T02:12:43;11.15;;;5.70;;
28007;SDS011;15333;50.010;20.020;2023-07-29T02:15:44;7.93;;;5.10;;
28007;SDS011;15333;50.010;20.020;2023-07-29T02:18:45;8.40;;;6.10;;
28007;SDS011;15333;50.010;20.020;2023-07-29T02:21:46;7.45;;;5.38;;
28007;SDS011;15333;50.010;20.020;2023-07-29T02:24:47;8.07;;;5.63;;
28007;SDS011;15333;50.010;20.020;2023-07-29T02:27:48;6.68;;;5.00;;
28007;SDS011;15333;50.010;20.020;2023-07-29T02:30:54;8.40;;;5.78;;
28007;SDS011;15333;50.010;20.020;2023-07-29T02:34:10;8.05;;;5.03;;
28007;SDS011;15333;50.010;20.020;2023-07-29T02:37:11;7.63;;;4.85;;
28007;SDS011;15333;50.010;20.020;2023-07-29T02:40:11;5.45;;;4.78;;
28007;SDS011;15333;50.010;20.020;2023-07-29T02:43:13;8.65;;;5.00;;
28007;SDS011;15333;50.010;20.020;2023-07-29T02:46:13;8.30;;;5.30;;
28007;SDS011;15333;50.010;20.020;2023-07-29T02:49:14;12.57;;;5.75;;
28007;SDS011;15333;50.010;20.020;2023-07-29T02:52:15;9.40;;;5.60;;
28007;SDS011;15333;50.010;20.020;2023-07-29T02:55:16;12.30;;;5.57;;
28007;SDS011;15333;50.010;20.020;2023-07-29T02:58:17;10.32;;;6.07;;
28007;SDS011;15333;50.010;20.020;2023-07-29T03:01:18;7.50;;;5.93;;
28007;SDS011;15333;50.010;20.020;2023-07-29T03:04:19;8.48;;;6.63;;
28007;SDS011;15333;50.010;20.020;2023-07-29T03:07:20;9.88;;;5.80;;
28007;SDS011;15333;50.010;20.020;2023-07-29T03:10:21;7.32;;;5.63;;
28007;SDS011;15333;50.010;20.020;2023-07-29T03:13:23;7.78;;;5.90;;
28007;SDS011;15333;50.010;20.020;2023-07-29T03:16:24;9.23;;;6.30;;
28007;SDS011;15333;50.010;20.020;2023-07-29T03:19:28;7.95;;;6.07;;
28007;SDS011;15333;50.010;20.020;2023-07-29T03:22:29;12.35;;;6.80;;
28007;SDS011;15333;50.010;20.020;2023-07-29T03:25:30;8.60;;;6.20;;
28007;SDS011;15333;50.010;20.020;2023-07-29T03:28:32;9.05;;;6.40;;
28007;SDS011;15333;50.010;20.020;2023-07-29T03:31:34;11.27;;;6.65;;
28007;SDS011;15333;50.010;20.020;2023-07-29T03:34:34;9.07;;;6.03;;
28007;SDS011;15333;50.010;20.020;2023-07-29T03:37:36;10.02;;;6.07;;
28007;SDS011;15333;50.010;20.020;2023-07-29T03:40:37;13.55;;;6.60;;
28007;SDS011;15333;50.010;20.020;2023-07-29T03:43:39;9.35;;;6.00;;
28007;SDS011;15333;50.010;20.020;2023-07-29T03:46:40;13.57;;;6.63;;
28007;SDS011;15333;50.010;20.020;2023-07-29T03:49:42;8.45;;;6.22;;
28007;SDS011;15333;50.010;20.020;2023-07-29T03:52:44;11.15;;;6.57;;
28007;SDS011;15333;50.010;20.020;2023-07-29T03:55:45;8.32;;;5.90;;
28007;SDS011;15333;50.010;20.020;2023-07-29T03:58:47;10.05;;;6.20;;
28007;SDS011;15333;50.010;20.020;2023-07-29T04:01:50;10.95;;;6.63;;
28007;SDS011;15333;50.010;20.020;2023-07-29T04:04:51;9.90;;;6.07;;
28007;SDS011;15333;50.010;20.020;2023-07-29T04:07:53;11.50;;;6.13;;
28007;SDS011;15333;50.010;20.020;2023-07-29T04:10:54;10.88;;;6.35;;
28007;SDS011;15333;50.010;20.020;2023-07-29T04:13:55;13.35;;;6.03;;
28007;SDS011;15333;50.010;20.020;2023-07-29T04:16:56;10.73;;;6.63;;
28007;SDS011;15333;50.010;20.020;2023-07-29T04:19:57;10.82;;;6.70;;
28007;SDS011;15333;50.010;20.020;2023-07-29T04:23:03;8.82;;;6.07;;
28007;SDS011;15333;50.010;20.020;2023-07-29T04:26:04;14.18;;;6.18;;
28007;SDS011;15333;50.010;20.020;2023-07-29T04:29:05;8.75;;;6.40;;
28007;SDS011;15333;50.010;20.020;2023-07-29T04:32:06;10.93;;;6.75;;
28007;SDS011;15333;50.010;20.020;2023-07-29T04:35:08;7.70;;;6.40;;
28007;SDS011;15333;50.010;20.020;2023-07-29T04:38:11;8.30;;;6.00;;
28007;SDS011;15333;50.010;20.020;2023-07-29T04:41:12;12.52;;;6.13;;
28007;SDS011;15333;50.010;20.020;2023-07-29T04:44:13;11.60;;;6.22;;
28007;SDS011;15333;50.010;20.020;2023-07-29T04:47:14;9.18;;;6.40;;
28007;SDS011;15333;50.010;20.020;2023-07-29T04:50:15;8.52;;;5.93;;
28007;SDS011;15333;50.010;20.020;2023-07-29T04:53:16;7.70;;;5.80;;
28007;SDS011;15333;50.010;20.020;2023-07-29T04:56:17;8.85;;;5.25;;
28007;SDS011;15333;50.010;20.020;2023-07-29T04:59:19;8.95;;;5.32;;
28007;SDS011;15333;50.010;20.020;2023-07-29T05:02:20;7.75;;;5.47;;
28007;SDS011;15333;50.010;20.020;2023-07-29T05:05:21;8.05;;;5.53;;
28007;SDS011;15333;50.010;20.020;2023-07-29T05:08:23;9.20;;;5.65;;
28007;SDS011;15333;50.010;20.020;2023-07-29T05:11:24;7.60;;;5.57;;
28007;SDS011;15333;50.010;20.020;2023-07-29T05:14:28;9.82;;;5.63;;
28007;SDS011;15333;50.010;20.020;2023-07-29T05:17:29;9.00;;;5.07;;
28007;SDS011;15333;50.010;20.020;2023-07-29T05:20:30;6.90;;;4.63;;
28007;SDS011;15333;50.010;20.020;2023-07-29T05:23:30;7.05;;;4.88;;
28007;SDS011;15333;50.010;20.020;2023-07-29T05:26:32;7.53;;;4.47;;
28007;SDS011;15333;50.010;20.020;2023-07-29T05:29:33;5.68;;;4.57;;
28007;SDS011;15333;50.010;20.020;2023-07-29T05:32:34;8.13;;;6.65;;
28007;SDS011;15333;50.010;20.020;2023-07-29T05:35:34;7.32;;;5.40;;
28007;SDS011;15333;50.010;20.020;2023-07-29T05:38:36;8.40;;;4.95;;
28007;SDS011;15333;50.010;20.020;2023-07-29T05:41:36;8.13;;;4.85;;
28007;SDS011;15333;50.010;20.020;2023-07-29T05:44:38;6.15;;;4.85;;
28007;SDS011;15333;50.010;20.020;2023-07-29T05:47:38;6.07;;;5.00;;
28007;SDS011;15333;50.010;20.020;2023-07-29T05:50:40;5.72;;;4.38;;
28007;SDS011;15333;50.010;20.020;2023-07-29T05:53:41;8.85;;;6.95;;
28007;SDS011;15333;50.010;20.020;2023-07-29T05:56:42;5.30;;;4.50;;
28007;SDS011;15333;50.010;20.020;2023-07-29T05:59:43;8.73;;;6.93;;
28007;SDS011;15333;50.010;20.020;2023-07-29T06:02:44;5.28;;;3.80;;
28007;SDS011;15333;50.010;20.020;2023-07-29T06:05:49;7.03;;;4.40;;
28007;SDS011;15333;50.010;20.020;2023-07-29T06:08:51;12.70;;;8.07;;
28007;SDS011;15333;50.010;20.020;2023-07-29T06:11:51;5.40;;;3.88;;
28007;SDS011;15333;50.010;20.020;2023-07-29T06:14:52;5.93;;;5.00;;
28007;SDS011;15333;50.010;20.020;2023-07-29T06:17:53;8.70;;;5.55;;
28007;SDS011;15333;50.010;20.020;2023-07-29T06:20:54;6.55;;;4.60;;
28007;SDS011;15333;50.010;20.020;2023-07-29T06:23:55;6.40;;;3.67;;
28007;SDS011;15333;50.010;20.020;2023-07-29T06:26:56;4.25;;;3.60;;
28007;SDS011;15333;50.010;20.020;2023-07-29T06:29:57;4.93;;;3.92;;
28007;SDS011;15333;50.010;20.020;2023-07-29T06:32:58;5.00;;;3.50;;
28007;SDS011;15333;50.010;20.020;2023-07-29T06:35:58;4.10;;;3.70;;
28007;SDS011;15333;50.010;20.020;2023-07-29T06:38:59;5.50;;;4.03;;
28007;SDS011;15333;50.010;20.020;2023-07-29T06:42:00;6.55;;;4.00;;
28007;SDS011;15333;50.010;20.020;2023-07-29T06:45:03;3.92;;;3.50;;
28007;SDS011;15333;50.010;20.020;2023-07-29T06:48:07;4.50;;;3.90;;
28007;SDS011;15333;50.010;20.020;2023-07-29T06:51:08;7.60;;;5.72;;
28007;SDS011;15333;50.010;20.020;2023-07-29T06:54:09;7.78;;;3.50;;
28007;SDS011;15333;50.010;20.020;2023-07-29T06:57:09;5.70;;;4.15;;
28007;SDS011;15333;50.010;20.020;2023-07-29T07:00:10;4.88;;;3.78;;
28007;SDS011;15333;50.010;20.020;2023-07-29T07:03:11;5.18;;;3.72;;
28007;SDS011;15333;50.010;20.020;2023-07-29T07:06:12;4.75;;;3.55;;
28007;SDS011;15333;50.010;20.020;2023-07-29T07:09:13;4.35;;;3.53;;
28007;SDS011;15333;50.010;20.020;2023-07-29T07:12:14;6.38;;;4.10;;
28007;SDS011;15333;50.010;20.020;2023-07-29T07:15:15;5.47;;;3.60;;
28007;SDS011;15333;50.010;20.020;2023-07-29T07:18:15;3.83;;;3.40;;
28007;SDS011;15333;50.010;20.020;2023-07-29T07:21:16;6.68;;;4.80;;
28007;SDS011;15333;50.010;20.020;2023-07-29T07:24:17;4.20;;;3.22;;
28007;SDS011;15333;50.010;20.020;2023-07-29T07:27:19;4.43;;;3.58;;
28007;SDS011;15333;50.010;20.020;2023-07-29T07:30:19;6.90;;;3.75;;
28007;SDS011;15333;50.010;20.020;2023-07-29T07:33:21;3.53;;;3.22;;
28007;SDS011;15333;50.010;20.020;2023-07-29T07:36:22;4.47;;;3.42;;
28007;SDS011;15333;50.010;20.020;2023-07-29T07:39:23;4.65;;;3.40;;
28007;SDS011;15333;50.010;20.020;2023-07-29T07:42:24;3.75;;;3.40;;
28007;SDS011;15333;50.010;20.020;2023-07-29T07:45:25;3.75;;;2.65;;
28007;SDS011;15333;50.010;20.020;2023-07-29T07:48:26;3.70;;;3.20;;
28007;SDS011;15333;50.010;20.020;2023-07-29T07:51:31;4.65;;;3.45;;
28007;SDS011;15333;50.010;20.020;2023-07-29T07:54:31;4.53;;;2.80;;
28007;SDS011;15333;50.010;20.020;2023-07-29T07:57:32;3.33;;;3.00;;
28007;SDS011;15333;50.010;20.020;2023-07-29T08:00:33;3.35;;;3.05;;
28007;SDS011;15333;50.010;20.020;2023-07-29T08:03:34;3.30;;;3.00;;
28007;SDS011;15333;50.010;20.020;2023-07-29T08:06:35;5.85;;;3.03;;
28007;SDS011;15333;50.010;20.020;2023-07-29T08:09:36;4.88;;;3.10;;
28007;SDS011;15333;50.010;20.020;2023-07-29T08:12:37;5.25;;;3.42;;
28007;SDS011;15333;50.010;20.020;2023-07-29T08:15:38;3.38;;;3.00;;
28007;SDS011;15333;50.010;20.020;2023-07-29T08:18:39;4.53;;;2.90;;
28007;SDS011;15333;50.010;20.020;2023-07-29T08:21:40;4.50;;;2.80;;
28007;SDS011;15333;50.010;20.020;2023-07-29T08:24:41;4.70;;;3.08;;
28007;SDS011;15333;50.010;20.020;2023-07-29T08:27:42;3.78;;;2.90;;
28007;SDS011;15333;50.010;20.020;2023-07-29T08:30:42;4.28;;;3.50;;
28007;SDS011;15333;50.010;20.020;2023-07-29T08:33:43;3.75;;;3.35;;
28007;SDS011;15333;50.010;20.020;2023-07-29T08:36:44;8.40;;;3.75;;
28007;SDS011;15333;50.010;20.020;2023-07-29T08:39:45;9.45;;;3.28;;
28007;SDS011;15333;50.010;20.020;2023-07-29T08:42:46;5.07;;;3.15;;
28007;SDS011;15333;50.010;20.020;2023-07-29T08:45:48;3.28;;;2.80;;
28007;SDS011;15333;50.010;20.020;2023-07-29T08:48:50;6.45;;;3.53;;
28007;SDS011;15333;50.010;20.020;2023-07-29T08:51:52;3.72;;;2.60;;
28007;SDS011;15333;50.010;20.020;2023-07-29T08:54:54;5.85;;;3.42;;
28007;SDS011;15333;50.010;20.020;2023-07-29T08:57:55;3.47;;;2.55;;
28007;SDS011;15333;50.010;20.020;2023-07-29T09:00:57;4.00;;;2.63;;
28007;SDS011;15333;50.010;20.020;2023-07-29T09:03:58;2.80;;;2.40;;
28007;SDS011;15333;50.010;20.020;2023-07-29T09:06:59;2.95;;;2.40;;
28007;SDS011;15333;50.010;20.020;2023-07-29T09:10:01;2.30;;;2.10;;
28007;SDS011;15333;50.010;20.020;2023-07-29T09:13:02;2.92;;;2.47;;
28007;SDS011;15333;50.010;20.020;2023-07-29T09:16:04;3.47;;;2.58;;
28007;SDS011;15333;50.010;20.020;2023-07-29T09:19:05;3.45;;;2.50;;
28007;SDS011;15333;50.010;20.020;2023-07-29T09:22:09;3.28;;;2.55;;
28007;SDS011;15333;50.010;20.020;2023-07-29T09:25:22;3.13;;;2.83;;
28007;SDS011;15333;50.010;20.020;2023-07-29T09:28:24;2.88;;;2.58;;
28007;SDS011;15333;50.010;20.020;2023-07-29T09:31:26;5.75;;;2.70;;
28007;SDS011;15333;50.010;20.020;2023-07-29T09:34:27;4.90;;;2.28;;
28007;SDS011;15333;50.010;20.020;2023-07-29T09:37:29;3.60;;;2.60;;
28007;SDS011;15333;50.010;20.020;2023-07-29T09:40:38;2.65;;;2.17;;
28007;SDS011;15333;50.010;20.020;2023-07-29T09:43:40;2.50;;;2.30;;
28007;SDS011;15333;50.010;20.020;2023-07-29T09:46:41;2.38;;;2.17;;
28007;SDS011;15333;50.010;20.020;2023-07-29T09:49:46;2.85;;;2.38;;
28007;SDS011;15333;50.010;20.020;2023-07-29T09:52:47;1.90;;;1.80;;
28007;SDS011;15333;50.010;20.020;2023-07-29T09:55:48;3.05;;;1.92;;
28007;SDS011;15333;50.010;20.020;2023-07-29T09:58:51;2.40;;;1.88;;
28007;SDS011;15333;50.010;20.020;2023-07-29T10:01:52;3.90;;;2.30;;
28007;SDS011;15333;50.010;20.020;2023-07-29T10:04:53;5.38;;;2.63;;
28007;SDS011;15333;50.010;20.020;2023-07-29T10:07:55;3.35;;;2.40;;
28007;SDS011;15333;50.010;20.020;2023-07-29T10:11:00;3.42;;;2.28;;
28007;SDS011;15333;50.010;20.020;2023-07-29T10:14:01;4.20;;;2.42;;
28007;SDS011;15333;50.010;20.020;2023-07-29T10:17:02;2.97;;;2.08;;
28007;SDS011;15333;50.010;20.020;2023-07-29T10:20:09;1.98;;;1.80;;
28007;SDS011;15333;50.010;20.020;2023-07-29T10:23:11;2.70;;;1.70;;
28007;SDS011;15333;50.010;20.020;2023-07-29T10:26:14;4.18;;;2.10;;
28007;SDS011;15333;50.010;20.020;2023-07-29T10:29:23;8.77;;;2.75;;
28007;SDS011;15333;50.010;20.020;2023-07-29T10:32:25;2.63;;;2.30;;
28007;SDS011;15333;50.010;20.020;2023-07-29T10:35:27;2.38;;;2.08;;
28007;SDS011;15333;50.010;20.020;2023-07-29T10:38:28;4.85;;;2.42;;
28007;SDS011;15333;50.010;20.020;2023-07-29T10:44:55;3.08;;;2.75;;
28007;SDS011;15333;50.010;20.020;2023-07-29T10:47:56;4.78;;;2.90;;
28007;SDS011;15333;50.010;20.020;2023-07-29T10:54:30;3.38;;;3.03;;
28007;SDS011;15333;50.010;20.020;2023-07-29T10:57:43;4.95;;;3.17;;
28007;SDS011;15333;50.010;20.020;2023-07-29T11:00:45;3.20;;;2.85;;
28007;SDS011;15333;50.010;20.020;2023-07-29T11:04:00;4.25;;;3.25;;
28007;SDS011;15333;50.010;20.020;2023-07-29T11:07:25;5.75;;;2.92;;
28007;SDS011;15333;50.010;20.020;2023-07-29T11:10:27;4.07;;;3.33;;
28007;SDS011;15333;50.010;20.020;2023-07-29T11:13:29;3.30;;;3.00;;
28007;SDS011;15333;50.010;20.020;2023-07-29T11:16:31;3.20;;;2.90;;
28007;SDS011;15333;50.010;20.020;2023-07-29T11:19:32;3.42;;;2.65;;
28007;SDS011;15333;50.010;20.020;2023-07-29T11:22:34;3.10;;;2.38;;
28007;SDS011;15333;50.010;20.020;2023-07-29T11:25:36;6.65;;;4.80;;
28007;SDS011;15333;50.010;20.020;2023-07-29T11:28:38;3.10;;;2.80;;
28007;SDS011;15333;50.010;20.020;2023-07-29T11:31:40;3.70;;;2.72;;
28007;SDS011;15333;50.010;20.020;2023-07-29T11:34:41;3.58;;;2.75;;
28007;SDS011;15333;50.010;20.020;2023-07-29T11:37:49;2.95;;;2.40;;
28007;SDS011;15333;50.010;20.020;2023-07-29T11:41:00;3.40;;;3.05;;
28007;SDS011;15333;50.010;20.020;2023-07-29T11:44:09;3.75;;;2.92;;
28007;SDS011;15333;50.010;20.020;2023-07-29T11:47:16;3.55;;;3.15;;
28007;SDS011;15333;50.010;20.020;2023-07-29T11:50:17;3.42;;;3.13;;
28007;SDS011;15333;50.010;20.020;2023-07-29T11:53:20;3.72;;;3.33;;
28007;SDS011;15333;50.010;20.020;2023-07-29T11:56:21;3.47;;;3.17;;
28007;SDS011;15333;50.010;20.020;2023-07-29T11:59:24;2.88;;;2.60;;
28007;SDS011;15333;50.010;20.020;2023-07-29T12:02:25;3.60;;;3.15;;
28007;SDS011;15333;50.010;20.020;2023-07-29T12:05:26;3.30;;;2.55;;
28007;SDS011;15333;50.010;20.020;2023-07-29T12:08:28;2.55;;;2.35;;
28007;SDS011;15333;50.010;20.020;2023-07-29T12:11:28;3.72;;;2.60;;
28007;SDS011;15333;50.010;20.020;2023-07-29T12:14:30;2.63;;;2.42;;
28007;SDS011;15333;50.010;20.020;2023-07-29T12:17:31;4.55;;;2.63;;
28007;SDS011;15333;50.010;20.020;2023-07-29T12:20:32;3.55;;;2.90;;
28007;SDS011;15333;50.010;20.020;2023-07-29T12:23:34;2.83;;;2.63;;
28007;SDS011;15333;50.010;20.020;2023-07-29T12:26:36;4.03;;;2.58;;
28007;SDS011;15333;50.010;20.020;2023-07-29T12:29:40;4.60;;;2.47;;
28007;SDS011;15333;50.010;20.020;2023-07-29T12:32:43;2.92;;;2.50;;
28007;SDS011;15333;50.010;20.020;2023-07-29T12:35:47;2.80;;;2.60;;
28007;SDS011;15333;50.010;20.020;2023-07-29T12:38:48;2.92;;;2.60;;
28007;SDS011;15333;50.010;20.020;2023-07-29T12:41:49;2.65;;;2.35;;
28007;SDS011;15333;50.010;20.020;2023-07-29T12:44:52;2.60;;;2.40;;
28007;SDS011;15333;50.010;20.020;2023-07-29T12:47:53;3.83;;;2.80;;
28007;SDS011;15333;50.010;20.020;2023-07-29T12:50:54;5.32;;;3.10;;
28007;SDS011;15333;50.010;20.020;2023-07-29T12:53:55;5.22;;;2.85;;
28007;SDS011;15333;50.010;20.020;2023-07-29T12:56:56;3.72;;;2.80;;
28007;SDS011;15333;50.010;20.020;2023-07-29T12:59:57;5.05;;;3.00;;
28007;SDS011;15333;50.010;20.020;2023-07-29T13:02:58;7.25;;;2.97;;
28007;SDS011;15333;50.010;20.020;2023-07-29T13:05:59;2.67;;;2.47;;
28007;SDS011;15333;50.010;20.020;2023-07-29T13:09:00;3.60;;;3.13;;
28007;SDS011;15333;50.010;20.020;2023-07-29T13:12:01;3.58;;;2.80;;
28007;SDS011;15333;50.010;20.020;2023-07-29T13:15:02;5.90;;;2.72;;
28007;SDS011;15333;50.010;20.020;2023-07-29T13:18:03;4.10;;;3.00;;
28007;SDS011;15333;50.010;20.020;2023-07-29T13:21:04;3.58;;;2.33;;
28007;SDS011;15333;50.010;20.020;2023-07-29T13:24:05;2.63;;;2.42;;
28007;SDS011;15333;50.010;20.020;2023-07-29T13:27:06;3.75;;;2.30;;
28007;SDS011;15333;50.010;20.020;2023-07-29T13:30:07;2.88;;;2.63;;
28007;SDS011;15333;50.010;20.020;2023-07-29T13:33:09;3.42;;;2.50;;
28007;SDS011;15333;50.010;20.020;2023-07-29T13:36:09;2.97;;;2.67;;
28007;SDS011;15333;50.010;20.020;2023-07-29T13:39:11;2.70;;;2.40;;
28007;SDS011;15333;50.010;20.020;2023-07-29T13:42:11;2.38;;;2.17;;
28007;SDS011;15333;50.010;20.020;2023-07-29T13:45:12;3.22;;;2.72;;
28007;SDS011;15333;50.010;20.020;2023-07-29T13:48:13;2.60;;;2.40;;
28007;SDS011;15333;50.010;20.020;2023-07-29T13:51:14;6.82;;;2.38;;
28007;SDS011;15333;50.010;20.020;2023-07-29T13:54:15;2.85;;;2.40;;
28007;SDS011;15333;50.010;20.020;2023-07-29T13:57:16;3.22;;;2.90;;
28007;SDS011;15333;50.010;20.020;2023-07-29T14:00:17;2.33;;;2.10;;
28007;SDS011;15333;50.010;20.020;2023-07-29T14:03:18;3.00;;;2.70;;
28007;SDS011;15333;50.010;20.020;2023-07-29T14:06:19;6.35;;;2.60;;
28007;SDS011;15333;50.010;20.020;2023-07-29T14:09:20;3.30;;;2.47;;
28007;SDS011;15333;50.010;20.020;2023-07-29T14:12:21;3.28;;;2.80;;
28007;SDS011;15333;50.010;20.020;2023-07-29T14:15:22;4.20;;;2.85;;
28007;SDS011;15333;50.010;20.020;2023-07-29T14:18:23;3.70;;;3.03;;
28007;SDS011;15333;50.010;20.020;2023-07-29T14:21:24;3.35;;;2.80;;
28007;SDS011;15333;50.010;20.020;2023-07-29T14:24:25;5.70;;;3.13;;
28007;SDS011;15333;50.010;20.020;2023-07-29T14:27:26;5.30;;;3.08;;
28007;SDS011;15333;50.010;20.020;2023-07-29T14:30:27;4.82;;;3.85;;
28007;SDS011;15333;50.010;20.020;2023-07-29T14:33:28;4.43;;;3.90;;
28007;SDS011;15333;50.010;20.020;2023-07-29T14:36:28;7.10;;;3.65;;
28007;SDS011;15333;50.010;20.020;2023-07-29T14:39:29;6.72;;;3.50;;
28007;SDS011;15333;50.010;20.020;2023-07-29T14:42:30;3.92;;;3.10;;
28007;SDS011;15333;50.010;20.020;2023-07-29T14:45:31;5.22;;;3.10;;
28007;SDS011;15333;50.010;20.020;2023-07-29T14:48:32;3.92;;;3.13;;
28007;SDS011;15333;50.010;20.020;2023-07-29T14:51:33;5.13;;;3.42;;
28007;SDS011;15333;50.010;20.020;2023-07-29T14:54:35;7.18;;;4.40;;
28007;SDS011;15333;50.010;20.020;2023-07-29T14:57:36;4.13;;;3.72;;
28007;SDS011;15333;50.010;20.020;2023-07-29T15:00:36;5.18;;;4.13;;
28007;SDS011;15333;50.010;20.020;2023-07-29T15:03:37;5.43;;;3.20;;
28007;SDS011;15333;50.010;20.020;2023-07-29T15:06:38;4.55;;;3.33;;
28007;SDS011;15333;50.010;20.020;2023-07-29T15:09:39;4.28;;;3.50;;
28007;SDS011;15333;50.010;20.020;2023-07-29T15:12:40;5.25;;;3.60;;
28007;SDS011;15333;50.010;20.020;2023-07-29T15:15:42;3.25;;;2.85;;
28007;SDS011;15333;50.010;20.020;2023-07-29T15:18:43;4.32;;;3.20;;
28007;SDS011;15333;50.010;20.020;2023-07-29T15:21:44;5.05;;;3.17;;
28007;SDS011;15333;50.010;20.020;2023-07-29T15:24:45;5.63;;;3.30;;
28007;SDS011;15333;50.010;20.020;2023-07-29T15:27:47;5.13;;;3.45;;
28007;SDS011;15333;50.010;20.020;2023-07-29T15:30:47;8.93;;;4.10;;
28007;SDS011;15333;50.010;20.020;2023-07-29T15:33:49;4.32;;;3.55;;
28007;SDS011;15333;50.010;20.020;2023-07-29T15:36:49;4.75;;;3.47;;
28007;SDS011;15333;50.010;20.020;2023-07-29T15:39:50;3.20;;;2.90;;
28007;SDS011;15333;50.010;20.020;2023-07-29T15:42:51;4.50;;;3.28;;
28007;SDS011;15333;50.010;20.020;2023-07-29T15:45:52;4.80;;;2.88;;
28007;SDS011;15333;50.010;20.020;2023-07-29T15:48:53;5.03;;;2.92;;
28007;SDS011;15333;50.010;20.020;2023-07-29T15:51:56;4.82;;;2.80;;
28007;SDS011;15333;50.010;20.020;2023-07-29T15:54:56;4.88;;;3.20;;
28007;SDS011;15333;50.010;20.020;2023-07-29T15:57:57;4.32;;;3.50;;
28007;SDS011;15333;50.010;20.020;2023-07-29T16:00:58;4.93;;;3.40;;
28007;SDS011;15333;50.010;20.020;2023-07-29T16:03:59;5.03;;;3.20;;
28007;SDS011;15333;50.010;20.020;2023-07-29T16:07:00;4.05;;;3.47;;
28007;SDS011;15333;50.010;20.020;2023-07-29T16:10:01;6.35;;;3.78;;
28007;SDS011;15333;50.010;20.020;2023-07-29T16:13:02;6.07;;;3.63;;
28007;SDS011;15333;50.010;20.020;2023-07-29T16:16:05;3.90;;;3.25;;
28007;SDS011;15333;50.010;20.020;2023-07-29T16:19:06;4.38;;;2.80;;
28007;SDS011;15333;50.010;20.020;2023-07-29T16:22:09;3.28;;;2.88;;
28007;SDS011;15333;50.010;20.020;2023-07-29T16:25:10;4.13;;;2.85;;
28007;SDS011;15333;50.010;20.020;2023-07-29T16:28:11;4.80;;;3.15;;
28007;SDS011;15333;50.010;20.020;2023-07-29T16:31:12;3.28;;;2.90;;
28007;SDS011;15333;50.010;20.020;2023-07-29T16:34:13;4.35;;;3.20;;
28007;SDS011;15333;50.010;20.020;2023-07-29T16:37:14;4.20;;;2.70;;
28007;SDS011;15333;50.010;20.020;2023-07-29T16:40:15;3.40;;;3.08;;
28007;SDS011;15333;50.010;20.020;2023-07-29T16:43:16;4.28;;;3.15;;
28007;SDS011;15333;50.010;20.020;2023-07-29T16:46:17;4.63;;;2.85;;
28007;SDS011;15333;50.010;20.020;2023-07-29T16:49:18;4.78;;;3.25;;
28007;SDS011;15333;50.010;20.020;2023-07-29T16:52:19;5.05;;;2.80;;
28007;SDS011;15333;50.010;20.020;2023-07-29T16:55:20;4.55;;;2.80;;
28007;SDS011;15333;50.010;20.020;2023-07-29T16:58:21;4.35;;;2.67;;
28007;SDS011;15333;50.010;20.020;2023-07-29T17:01:22;5.78;;;2.83;;
28007;SDS011;15333;50.010;20.020;2023-07-29T17:04:23;3.10;;;2.55;;
28007;SDS011;15333;50.010;20.020;2023-07-29T17:07:25;5.53;;;2.72;;
28007;SDS011;15333;50.010;20.020;2023-07-29T17:10:26;3.13;;;2.78;;
28007;SDS011;15333;50.010;20.020;2023-07-29T17:13:27;3.42;;;2.67;;
28007;SDS011;15333;50.010;20.020;2023-07-29T17:16:28;3.58;;;3.03;;
28007;SDS011;15333;50.010;20.020;2023-07-29T17:19:28;5.10;;;3.00;;
28007;SDS011;15333;50.010;20.020;2023-07-29T17:22:29;5.35;;;3.83;;
28007;SDS011;15333;50.010;20.020;2023-07-29T17:25:33;4.65;;;2.95;;
28007;SDS011;15333;50.010;20.020;2023-07-29T17:28:35;3.55;;;2.78;;
28007;SDS011;15333;50.010;20.020;2023-07-29T17:31:35;4.85;;;3.50;;
28007;SDS011;15333;50.010;20.020;2023-07-29T17:34:36;4.78;;;3.28;;
28007;SDS011;15333;50.010;20.020;2023-07-29T17:37:37;6.82;;;3.78;;
28007;SDS011;15333;50.010;20.020;2023-07-29T17:40:39;6.05;;;4.63;;
28007;SDS011;15333;50.010;20.020;2023-07-29T17:43:40;6.00;;;4.47;;
28007;SDS011;15333;50.010;20.020;2023-07-29T17:46:45;7.03;;;3.45;;
28007;SDS011;15333;50.010;20.020;2023-07-29T17:49:46;5.85;;;3.42;;
28007;SDS011;15333;50.010;20.020;2023-07-29T17:52:47;5.40;;;4.07;;
28007;SDS011;15333;50.010;20.020;2023-07-29T17:55:47;5.30;;;3.88;;
28007;SDS011;15333;50.010;20.020;2023-07-29T17:58:49;6.50;;;4.38;;
28007;SDS011;15333;50.010;20.020;2023-07-29T18:01:49;10.50;;;4.78;;
28007;SDS011;15333;50.010;20.020;2023-07-29T18:04:51;13.32;;;4.50;;
28007;SDS011;15333;50.010;20.020;2023-07-29T18:07:51;6.15;;;3.90;;
28007;SDS011;15333;50.010;20.020;2023-07-29T18:10:52;7.18;;;4.63;;